Time;durP1;ratioP1;P1;durP2;ratioP2;P2;SDS_P1;SDS_P2;PMS_P1;PMS_P2;Temp;Humidity;BMP_temperature;BMP_pressure;BME280_temperature;BME280_humidity;BME280_pressure;Samples;Min_cycle;Max_cycle;Signal;HPM_P1;HPM_P2
2023/05/07 00:01:43;;;;;;;8.07;6.90;;;;;;;15.59;86.88;101355.19;3609243;39;20043;-69
2023/05/07 00:04:09;;;;;;;6.93;5.63;;;;;;;15.64;86.23;101357.59;3597669;39;20095;-70
2023/05/07 00:06:35;;;;;;;5.40;4.90;;;;;;;15.65;85.80;101359.31;3610964;39;20067;-69
2023/05/07 00:09:01;;;;;;;9.30;5.90;;;;;;;15.69;85.98;101356.28;3611364;39;20043;-69
2023/05/07 00:11:28;;;;;;;7.22;5.80;;;;;;;15.37;85.43;101300.88;3611856;39;20053;-69
2023/05/07 00:13:54;;;;;;;7.13;5.72;;;;;;;15.55;85.65;101324.75;3611892;39;20109;-68
2023/05/07 00:16:20;;;;;;;6.40;5.20;;;;;;;15.50;85.53;101321.53;3605675;39;20092;-69
2023/05/07 00:18:45;;;;;;;6.03;5.43;;;;;;;15.69;85.52;101348.13;3606576;39;20112;-69
2023/05/07 00:21:11;;;;;;;6.30;5.70;;;;;;;15.69;86.12;101342.72;3607786;39;20110;-69
2023/05/07 00:23:37;;;;;;;8.43;5.38;;;;;;;15.70;85.15;101338.19;3608398;39;20066;-69
2023/05/07 00:26:04;;;;;;;6.10;5.50;;;;;;;15.44;85.58;101294.88;3611614;39;20055;-69
2023/05/07 00:28:30;;;;;;;7.55;5.82;;;;;;;15.68;85.85;101342.84;3598817;39;20054;-69
2023/05/07 00:30:56;;;;;;;6.35;5.65;;;;;;;15.71;85.95;101337.19;3605317;39;20059;-69
2023/05/07 00:33:22;;;;;;;6.03;5.47;;;;;;;15.66;86.08;101340.22;3608479;39;20062;-69
2023/05/07 00:35:48;;;;;;;6.30;5.50;;;;;;;15.49;85.14;101314.38;3605167;39;20078;-69
2023/05/07 00:38:14;;;;;;;6.85;5.70;;;;;;;15.66;85.39;101331.22;3603394;39;20047;-68
2023/05/07 00:40:39;;;;;;;6.47;5.65;;;;;;;15.63;85.32;101335.00;3606134;39;20062;-70
2023/05/07 00:43:06;;;;;;;6.78;6.07;;;;;;;15.65;85.68;101333.06;3607124;39;20334;-69
2023/05/07 00:45:33;;;;;;;6.60;6.00;;;;;;;15.62;86.32;101321.59;3608361;39;20042;-69
2023/05/07 00:48:02;;;;;;;7.30;6.60;;;;;;;15.62;86.06;101318.88;3610614;39;20051;-70
2023/05/07 00:50:29;;;;;;;8.35;5.90;;;;;;;15.60;85.94;101313.56;3605103;39;20106;-69
2023/05/07 00:52:56;;;;;;;8.25;6.28;;;;;;;15.46;86.28;101298.34;3604341;39;20051;-68
2023/05/07 00:55:23;;;;;;;6.85;6.22;;;;;;;15.61;86.40;101317.16;3605237;39;20046;-70
2023/05/07 00:57:50;;;;;;;7.13;6.43;;;;;;;15.48;86.84;101301.81;3603951;39;20120;-70
2023/05/07 01:00:17;;;;;;;7.10;6.00;;;;;;;15.60;87.29;101323.53;3609156;39;20050;-69
2023/05/07 01:02:44;;;;;;;7.68;6.88;;;;;;;15.60;87.07;101326.25;3608007;39;20047;-70
2023/05/07 01:05:15;;;;;;;6.90;6.30;;;;;;;15.55;86.50;101335.59;3604842;39;20368;-69
2023/05/07 01:07:43;;;;;;;7.45;6.72;;;;;;;15.41;87.00;101300.53;3605755;39;20393;-69
2023/05/07 01:10:11;;;;;;;7.38;6.60;;;;;;;15.55;86.60;101327.47;3610189;39;20151;-69
2023/05/07 01:12:40;;;;;;;7.47;6.80;;;;;;;15.58;86.80;101333.66;3612087;39;20062;-69
2023/05/07 01:15:08;;;;;;;8.00;7.13;;;;;;;15.58;87.77;101328.22;3612033;39;20458;-69
2023/05/07 01:17:40;;;;;;;7.95;7.18;;;;;;;15.57;87.39;101324.63;3612200;39;20324;-69
2023/05/07 01:20:09;;;;;;;9.88;7.43;;;;;;;15.54;87.85;101317.63;3611790;39;20102;-70
2023/05/07 01:22:40;;;;;;;8.75;7.95;;;;;;;15.56;87.83;101325.63;3611844;39;20506;-69
2023/05/07 01:25:08;;;;;;;9.70;7.55;;;;;;;15.56;87.96;101304.81;3613855;39;20047;-68
2023/05/07 01:27:35;;;;;;;8.27;7.45;;;;;;;15.53;87.68;101305.03;3611886;39;20578;-70
2023/05/07 01:30:01;;;;;;;8.48;7.57;;;;;;;15.53;88.07;101307.75;3613821;39;20051;-69
2023/05/07 01:32:40;;;;;;;9.73;8.05;;;;;;;15.51;87.61;101296.16;3612366;39;20557;-69
2023/05/07 01:35:11;;;;;;;9.90;8.18;;;;;;;15.41;88.13;101278.00;3607170;39;20048;-69
2023/05/07 01:37:40;;;;;;;8.88;7.97;;;;;;;15.49;88.30;101298.13;3607993;39;20128;-69
2023/05/07 01:40:08;;;;;;;9.85;8.32;;;;;;;15.47;88.09;101299.22;3610590;39;20063;-69
2023/05/07 01:42:33;;;;;;;8.88;8.07;;;;;;;15.44;88.56;101300.28;3609034;39;20063;-69
2023/05/07 01:44:59;;;;;;;9.02;8.13;;;;;;;15.40;88.14;101289.81;3611711;39;20112;-69
2023/05/07 01:47:26;;;;;;;10.15;9.02;;;;;;;15.26;88.47;101269.19;3610545;39;20109;-69
2023/05/07 01:49:53;;;;;;;9.50;8.63;;;;;;;15.40;88.38;101290.69;3612248;39;20051;-69
2023/05/07 01:52:18;;;;;;;9.70;8.82;;;;;;;15.39;88.93;101297.09;3608594;39;20077;-69
2023/05/07 01:54:44;;;;;;;10.05;9.00;;;;;;;15.40;88.46;101290.69;3608784;39;20381;-69
2023/05/07 01:57:09;;;;;;;10.63;9.57;;;;;;;15.38;88.81;101289.94;3610004;39;20046;-69
2023/05/07 01:59:35;;;;;;;11.13;10.02;;;;;;;15.36;88.89;101282.91;3608816;39;20402;-69
2023/05/07 02:02:01;;;;;;;11.95;10.77;;;;;;;15.36;89.39;101283.78;3610424;39;20059;-69
2023/05/07 02:04:26;;;;;;;13.10;11.07;;;;;;;15.36;88.65;101285.63;3610354;39;20066;-69
2023/05/07 02:06:52;;;;;;;12.55;11.05;;;;;;;15.21;88.80;101265.94;3612951;39;20054;-69
2023/05/07 02:09:19;;;;;;;12.52;11.20;;;;;;;15.33;88.99;101289.41;3607486;39;20055;-69
2023/05/07 02:11:45;;;;;;;14.57;12.13;;;;;;;15.31;89.55;101283.22;3608404;39;20051;-69
2023/05/07 02:14:10;;;;;;;13.07;11.75;;;;;;;15.30;89.31;101287.78;3610881;39;20045;-68
2023/05/07 02:16:36;;;;;;;13.20;11.95;;;;;;;15.30;89.88;101284.22;3609338;39;20069;-69
2023/05/07 02:19:02;;;;;;;15.00;13.40;;;;;;;15.29;89.93;101285.22;3613284;39;20054;-69
2023/05/07 02:21:28;;;;;;;20.83;18.63;;;;;;;15.27;89.56;101285.31;3611080;39;20066;-69
2023/05/07 02:23:53;;;;;;;24.52;21.92;;;;;;;15.28;90.13;101294.28;3609263;39;20420;-70
2023/05/07 02:26:19;;;;;;;21.08;17.63;;;;;;;15.25;89.96;101284.56;3605648;39;20063;-69
2023/05/07 02:28:45;;;;;;;19.13;15.20;;;;;;;15.27;90.19;101293.44;3607441;39;20070;-68
2023/05/07 02:31:10;;;;;;;15.45;13.85;;;;;;;15.30;90.67;101298.63;3609103;39;20370;-70
2023/05/07 02:33:36;;;;;;;14.27;12.77;;;;;;;15.29;90.34;101301.47;3607718;39;20071;-69
2023/05/07 02:36:12;;;;;;;16.40;13.85;;;;;;;15.29;90.51;101301.47;3609220;39;20047;-69
2023/05/07 02:38:38;;;;;;;15.40;13.80;;;;;;;15.21;90.69;101279.50;3605566;39;20072;-69
2023/05/07 02:41:04;;;;;;;15.85;14.15;;;;;;;15.24;90.98;101287.38;3608238;39;20382;-69
2023/05/07 02:43:30;;;;;;;16.05;14.35;;;;;;;15.30;90.44;101298.63;3606780;39;20058;-69
2023/05/07 02:46:08;;;;;;;16.38;14.73;;;;;;;15.28;90.63;101294.28;3610534;39;20051;-69
2023/05/07 02:48:34;;;;;;;15.75;14.15;;;;;;;15.18;91.08;101277.00;3608894;39;20066;-68
2023/05/07 02:51:03;;;;;;;17.63;14.82;;;;;;;15.23;91.32;101286.53;3607103;39;20136;-68
2023/05/07 02:53:29;;;;;;;16.35;14.65;;;;;;;15.29;91.21;101304.19;3610390;39;20127;-69
2023/05/07 02:56:00;;;;;;;16.58;14.80;;;;;;;15.31;90.97;101304.91;3607518;39;20047;-69
2023/05/07 02:58:26;;;;;;;16.58;14.90;;;;;;;15.33;90.46;101305.66;3605951;39;20055;-69
2023/05/07 03:00:52;;;;;;;16.58;14.77;;;;;;;15.33;90.99;101292.97;3610712;39;20050;-69
2023/05/07 03:03:18;;;;;;;16.88;15.18;;;;;;;15.32;90.96;101298.53;3609795;39;20316;-69
2023/05/07 03:05:44;;;;;;;18.17;16.27;;;;;;;15.32;90.96;101293.13;3608621;39;20058;-69
2023/05/07 03:08:10;;;;;;;18.83;16.80;;;;;;;15.33;90.84;101286.72;3606524;39;20063;-68
2023/05/07 03:10:37;;;;;;;19.98;17.98;;;;;;;15.09;91.13;101256.88;3606251;39;20131;-68
2023/05/07 03:13:03;;;;;;;19.65;17.67;;;;;;;15.29;91.58;101279.78;3607556;39;20057;-69
2023/05/07 03:15:29;;;;;;;20.45;18.38;;;;;;;15.12;91.60;101250.38;3607429;39;20054;-69
2023/05/07 03:17:55;;;;;;;20.83;18.65;;;;;;;15.33;91.41;101292.97;3608858;39;20065;-70
2023/05/07 03:20:20;;;;;;;21.33;19.23;;;;;;;15.33;91.28;101286.72;3607924;39;20051;-69
2023/05/07 03:22:46;;;;;;;21.70;19.60;;;;;;;15.34;91.55;101283.00;3610760;39;20059;-69
2023/05/07 03:25:13;;;;;;;21.75;19.38;;;;;;;15.37;91.32;101284.63;3608066;39;20063;-70
2023/05/07 03:27:39;;;;;;;21.35;19.23;;;;;;;15.37;91.34;101282.78;3606282;39;20113;-69
2023/05/07 03:30:06;;;;;;;21.92;19.67;;;;;;;15.38;91.75;101281.81;3609418;39;20051;-67
2023/05/07 03:32:32;;;;;;;22.58;20.27;;;;;;;15.39;91.14;101280.84;3595736;39;20063;-68
2023/05/07 03:34:58;;;;;;;23.33;20.85;;;;;;;15.40;91.03;101282.56;3609882;39;20053;-69
2023/05/07 03:37:23;;;;;;;23.30;21.00;;;;;;;15.39;91.75;101280.84;3606301;39;20090;-68
2023/05/07 03:39:49;;;;;;;22.83;20.60;;;;;;;15.39;91.42;101275.41;3607296;39;20051;-69
2023/05/07 03:42:15;;;;;;;22.98;20.55;;;;;;;15.40;91.71;101268.16;3605524;39;20051;-70
2023/05/07 03:44:40;;;;;;;24.00;21.45;;;;;;;15.42;91.33;101277.91;3606529;39;20322;-70
2023/05/07 03:47:06;;;;;;;22.60;20.35;;;;;;;15.40;91.46;101278.97;3610262;39;20099;-70
2023/05/07 03:49:32;;;;;;;24.48;21.92;;;;;;;15.40;91.83;101277.13;3608604;39;20075;-70
2023/05/07 03:51:57;;;;;;;24.98;22.23;;;;;;;15.40;91.57;101277.13;3609924;39;20051;-70
2023/05/07 03:54:23;;;;;;;23.80;21.40;;;;;;;15.42;91.46;101275.19;3604619;39;20058;-70
2023/05/07 03:56:48;;;;;;;24.30;21.77;;;;;;;15.43;91.47;101282.31;3610482;39;20330;-70
2023/05/07 03:59:14;;;;;;;23.52;21.10;;;;;;;15.41;91.45;101281.56;3609441;39;20050;-69
2023/05/07 04:01:40;;;;;;;24.92;22.40;;;;;;;15.39;91.44;101280.84;3607605;39;20051;-70
2023/05/07 04:04:06;;;;;;;24.65;22.25;;;;;;;15.41;91.65;101286.97;3606020;39;20051;-70
2023/05/07 04:06:32;;;;;;;25.10;22.60;;;;;;;15.41;91.61;101295.09;3602936;39;20062;-67
2023/05/07 04:08:57;;;;;;;24.23;21.70;;;;;;;15.40;91.73;101300.66;3606699;39;20470;-66
2023/05/07 04:11:23;;;;;;;26.20;23.60;;;;;;;15.35;91.73;101305.53;3606482;39;20062;-66
2023/05/07 04:13:49;;;;;;;24.30;21.73;;;;;;;15.35;91.82;101306.44;3604838;39;20051;-66
2023/05/07 04:16:15;;;;;;;25.65;22.90;;;;;;;15.36;92.15;101308.16;3608878;39;20051;-65
2023/05/07 04:18:41;;;;;;;25.67;23.05;;;;;;;15.28;91.72;101291.59;3607556;39;20047;-66
2023/05/07 04:21:19;;;;;;;26.17;23.55;;;;;;;15.37;92.05;101304.44;3611289;39;20337;-66
2023/05/07 04:23:48;;;;;;;26.75;23.80;;;;;;;15.39;91.74;101310.63;3610933;39;20397;-67
2023/05/07 04:26:14;;;;;;;26.45;23.70;;;;;;;14.75;91.84;101201.69;3606454;39;20388;-66
2023/05/07 04:28:40;;;;;;;27.20;24.38;;;;;;;15.37;91.92;101307.16;3608033;39;20063;-69
2023/05/07 04:31:06;;;;;;;27.05;24.25;;;;;;;15.10;92.22;101264.03;3607085;39;20199;-69
2023/05/07 04:33:33;;;;;;;27.15;24.45;;;;;;;15.20;92.04;101275.06;3607595;39;20101;-69
2023/05/07 04:36:03;;;;;;;28.02;25.20;;;;;;;15.39;92.31;101307.94;3607166;39;20083;-69
2023/05/07 04:38:32;;;;;;;27.95;25.02;;;;;;;15.34;92.17;101293.84;3608582;39;20057;-69
2023/05/07 04:41:05;;;;;;;27.70;24.88;;;;;;;15.37;92.13;101299.03;3604006;39;20413;-68
2023/05/07 04:43:30;;;;;;;28.15;25.35;;;;;;;15.21;92.81;101271.38;3607156;39;20059;-67
2023/05/07 04:45:56;;;;;;;29.40;26.50;;;;;;;15.43;92.26;101308.56;3606319;39;20090;-67
2023/05/07 04:48:21;;;;;;;27.27;24.75;;;;;;;15.44;92.49;101303.00;3607521;39;20065;-67
2023/05/07 04:50:49;;;;;;;27.73;24.83;;;;;;;15.48;92.35;101306.38;3605407;39;20059;-67
2023/05/07 04:53:14;;;;;;;28.70;25.83;;;;;;;15.50;92.33;101317.94;3596244;39;20047;-67
2023/05/07 04:55:40;;;;;;;26.98;24.30;;;;;;;15.51;92.11;101311.56;3610097;39;20056;-66
2023/05/07 04:58:06;;;;;;;27.45;24.65;;;;;;;15.50;92.40;101317.94;3605123;39;20709;-67
2023/05/07 05:00:31;;;;;;;27.25;24.63;;;;;;;15.54;91.84;101325.75;3609472;39;20139;-67
2023/05/07 05:02:57;;;;;;;27.27;24.58;;;;;;;15.57;91.97;101327.34;3611662;39;20083;-67
2023/05/07 05:05:22;;;;;;;26.80;24.00;;;;;;;15.60;92.41;101328.97;3606558;39;20189;-67
2023/05/07 05:07:48;;;;;;;26.63;24.00;;;;;;;15.60;91.45;101326.25;3608334;39;20047;-68
2023/05/07 05:10:13;;;;;;;26.67;23.98;;;;;;;15.61;92.08;101328.88;3609795;39;20061;-68
2023/05/07 05:12:39;;;;;;;26.88;24.20;;;;;;;15.62;91.54;101324.31;3613185;39;20135;-67
2023/05/07 05:15:06;;;;;;;26.38;23.77;;;;;;;15.44;91.95;101294.88;3612151;39;20134;-69
2023/05/07 05:17:34;;;;;;;26.20;23.60;;;;;;;15.60;91.52;101327.09;3606202;39;20071;-69
2023/05/07 05:19:59;;;;;;;27.10;24.40;;;;;;;15.65;91.39;101322.22;3598402;39;20290;-68
2023/05/07 05:22:25;;;;;;;26.70;23.92;;;;;;;15.70;92.00;101332.78;3610500;39;20054;-69
2023/05/07 05:24:51;;;;;;;26.42;23.80;;;;;;;15.75;92.15;101327.84;3611530;39;20047;-69
2023/05/07 05:27:16;;;;;;;26.88;24.25;;;;;;;15.78;91.74;101335.75;3610526;39;20677;-69
2023/05/07 05:29:42;;;;;;;25.88;23.38;;;;;;;15.81;90.90;101332.81;3611088;39;20053;-69
2023/05/07 05:32:08;;;;;;;26.90;24.25;;;;;;;15.83;91.35;101333.56;3611476;39;20046;-69
2023/05/07 05:34:33;;;;;;;25.92;23.35;;;;;;;15.75;90.81;101327.84;3607713;39;20498;-69
2023/05/07 05:36:59;;;;;;;24.85;22.45;;;;;;;15.87;91.19;101334.19;3607938;39;20047;-69
2023/05/07 05:39:25;;;;;;;26.65;23.95;;;;;;;15.92;91.09;101342.81;3610996;39;20050;-69
2023/05/07 05:41:50;;;;;;;26.65;23.85;;;;;;;15.95;90.66;101338.06;3608926;39;20050;-69
2023/05/07 05:44:16;;;;;;;25.73;23.13;;;;;;;15.91;91.04;101333.81;3608693;39;20341;-67
2023/05/07 05:46:42;;;;;;;25.27;22.70;;;;;;;15.92;90.88;101338.28;3609102;39;20046;-69
2023/05/07 05:49:08;;;;;;;25.45;22.90;;;;;;;15.97;90.04;101348.78;3608461;39;20071;-69
2023/05/07 05:51:34;;;;;;;23.95;21.75;;;;;;;15.96;89.15;101339.78;3611750;39;20485;-69
2023/05/07 05:53:59;;;;;;;24.55;22.13;;;;;;;15.97;89.59;101336.06;3607371;39;20063;-69
2023/05/07 05:56:25;;;;;;;26.85;24.13;;;;;;;16.02;90.10;101339.31;3608210;39;20047;-69
2023/05/07 05:58:51;;;;;;;24.25;21.80;;;;;;;16.04;89.24;101349.16;3610204;39;20055;-68
2023/05/07 06:01:18;;;;;;;24.30;22.10;;;;;;;16.05;89.89;101346.34;3609124;39;20069;-68
2023/05/07 06:03:44;;;;;;;23.92;21.58;;;;;;;16.09;89.97;101352.41;3609341;39;20091;-69
2023/05/07 06:06:10;;;;;;;24.52;22.05;;;;;;;16.17;89.77;101352.66;3608082;39;20091;-68
2023/05/07 06:08:36;;;;;;;24.83;22.27;;;;;;;15.98;89.38;101316.13;3610166;39;20078;-69
2023/05/07 06:11:02;;;;;;;24.85;22.33;;;;;;;16.26;89.60;101351.94;3609699;39;20062;-68
2023/05/07 06:13:28;;;;;;;24.42;21.63;;;;;;;16.30;89.10;101358.91;3608632;39;20143;-69
2023/05/07 06:15:54;;;;;;;22.92;20.63;;;;;;;16.35;89.13;101350.38;3608241;39;20340;-68
2023/05/07 06:18:19;;;;;;;21.70;19.63;;;;;;;16.40;87.47;101354.47;3605475;39;20138;-68
2023/05/07 06:20:45;;;;;;;22.95;20.75;;;;;;;16.45;87.73;101356.81;3608626;39;20071;-68
2023/05/07 06:23:10;;;;;;;22.83;19.60;;;;;;;16.50;87.51;101356.47;3609783;39;20055;-69
2023/05/07 06:25:36;;;;;;;21.60;19.60;;;;;;;16.52;87.45;101352.63;3607773;39;20297;-69
2023/05/07 06:28:02;;;;;;;22.10;19.80;;;;;;;16.59;87.46;101350.31;3610378;39;20058;-69
2023/05/07 06:30:27;;;;;;;20.70;18.88;;;;;;;16.63;86.62;101343.66;3610777;39;20055;-69
2023/05/07 06:32:53;;;;;;;21.23;19.13;;;;;;;16.68;87.69;101350.47;3611825;39;20051;-69
2023/05/07 06:35:19;;;;;;;21.92;19.67;;;;;;;16.74;87.17;101357.22;3613225;39;20050;-69
2023/05/07 06:37:44;;;;;;;19.95;17.95;;;;;;;16.77;85.64;101356.16;3609737;39;20058;-68
2023/05/07 06:40:11;;;;;;;20.33;18.02;;;;;;;16.81;84.63;101352.19;3610642;39;20085;-68
2023/05/07 06:42:37;;;;;;;20.25;18.38;;;;;;;16.79;84.68;101357.78;3609166;39;20051;-69
2023/05/07 06:45:03;;;;;;;20.27;18.10;;;;;;;16.81;85.04;101358.53;3606336;39;20132;-69
2023/05/07 06:47:29;;;;;;;18.90;17.08;;;;;;;16.84;84.82;101371.84;3611965;39;20079;-69
2023/05/07 06:49:55;;;;;;;19.23;17.23;;;;;;;16.86;84.42;101371.72;3610630;39;20065;-69
2023/05/07 06:52:20;;;;;;;18.98;17.10;;;;;;;16.72;84.15;101361.94;3610292;39;20348;-69
2023/05/07 06:54:46;;;;;;;18.95;17.05;;;;;;;16.81;85.37;101379.34;3606500;39;20059;-69
2023/05/07 06:57:12;;;;;;;18.90;17.00;;;;;;;16.82;84.81;101375.69;3609219;39;20409;-69
2023/05/07 06:59:37;;;;;;;18.92;16.85;;;;;;;16.76;85.23;101366.16;3612108;39;20051;-68
2023/05/07 07:02:03;;;;;;;18.58;16.70;;;;;;;16.86;84.29;101378.00;3612116;39;20066;-69
2023/05/07 07:04:28;;;;;;;18.38;16.48;;;;;;;16.89;84.46;101377.78;3611960;39;20067;-69
2023/05/07 07:06:56;;;;;;;18.75;16.85;;;;;;;16.90;85.34;101374.09;3607493;39;20047;-68
2023/05/07 07:09:22;;;;;;;18.45;16.55;;;;;;;16.88;84.34;101373.34;3609541;39;20059;-68
2023/05/07 07:11:47;;;;;;;17.88;15.98;;;;;;;16.82;84.29;101359.38;3609526;39;20061;-68
2023/05/07 07:14:13;;;;;;;18.92;17.02;;;;;;;16.93;85.52;101379.25;3609029;39;20066;-69
2023/05/07 07:16:38;;;;;;;17.58;15.88;;;;;;;16.94;84.71;101374.69;3611849;39;20057;-68
2023/05/07 07:19:04;;;;;;;18.17;16.40;;;;;;;16.98;85.22;101375.31;3608710;39;20386;-68
2023/05/07 07:21:30;;;;;;;18.02;16.33;;;;;;;17.03;85.62;101381.22;3609284;39;20046;-68
2023/05/07 07:23:56;;;;;;;17.90;16.08;;;;;;;17.06;84.27;101383.69;3609397;39;20487;-68
2023/05/07 07:26:21;;;;;;;17.88;16.08;;;;;;;17.11;84.95;101382.34;3608751;39;20051;-68
2023/05/07 07:28:47;;;;;;;18.00;16.15;;;;;;;17.16;84.54;101391.00;3607825;39;20053;-69
2023/05/07 07:31:13;;;;;;;16.95;15.35;;;;;;;17.15;83.68;101386.53;3609448;39;20423;-69
2023/05/07 07:33:39;;;;;;;17.40;15.57;;;;;;;17.14;83.46;101386.69;3612214;39;20151;-69
2023/05/07 07:36:07;;;;;;;17.73;15.90;;;;;;;17.17;84.49;101391.88;3594172;39;20338;-69
2023/05/07 07:38:33;;;;;;;17.33;15.73;;;;;;;17.20;82.76;101393.47;3607811;39;20054;-69
2023/05/07 07:40:58;;;;;;;16.50;14.93;;;;;;;17.21;82.86;101393.34;3606891;39;20128;-69
2023/05/07 07:43:24;;;;;;;17.00;15.32;;;;;;;17.35;83.99;101397.66;3607193;39;20055;-69
2023/05/07 07:45:49;;;;;;;17.00;15.13;;;;;;;17.45;83.86;101400.50;3607581;39;20039;-69
2023/05/07 07:48:15;;;;;;;17.50;14.77;;;;;;;17.54;82.72;101399.75;3612109;39;20059;-69
2023/05/07 07:50:41;;;;;;;16.50;14.80;;;;;;;17.57;81.47;101394.03;3606630;39;20051;-68
2023/05/07 07:53:06;;;;;;;15.60;14.10;;;;;;;17.59;82.03;101390.19;3607804;39;20391;-68
2023/05/07 07:55:32;;;;;;;15.55;13.95;;;;;;;17.50;80.81;101360.19;3605581;39;20059;-68
2023/05/07 07:57:58;;;;;;;20.75;15.18;;;;;;;17.21;81.51;101300.09;3606312;39;20059;-68
2023/05/07 08:00:23;;;;;;;15.38;13.82;;;;;;;17.83;80.90;101392.78;3609522;39;20054;-67
2023/05/07 08:02:49;;;;;;;15.85;14.32;;;;;;;17.88;80.83;101394.25;3610640;39;20066;-68
2023/05/07 08:05:15;;;;;;;15.35;13.18;;;;;;;17.88;79.79;101396.97;3601481;39;21257;-68
2023/05/07 08:07:41;;;;;;;15.57;13.80;;;;;;;17.93;80.98;101392.88;3609127;39;20062;-67
2023/05/07 08:10:06;;;;;;;16.45;14.75;;;;;;;18.06;79.66;101393.56;3613528;39;20351;-68
2023/05/07 08:12:32;;;;;;;16.33;14.77;;;;;;;18.18;78.08;101394.41;3607657;39;20059;-67
2023/05/07 08:14:58;;;;;;;15.00;13.35;;;;;;;18.33;78.95;101393.09;3594583;39;20055;-67
2023/05/07 08:17:24;;;;;;;14.57;12.80;;;;;;;18.24;78.01;101357.63;3606167;39;20047;-67
2023/05/07 08:19:50;;;;;;;16.02;12.50;;;;;;;18.56;77.29;101384.81;3609843;39;20051;-68
2023/05/07 08:22:17;;;;;;;13.05;11.85;;;;;;;18.77;76.42;101403.88;3612476;39;20051;-67
2023/05/07 08:24:43;;;;;;;14.73;13.20;;;;;;;18.91;77.22;101403.53;3609827;39;20044;-68
2023/05/07 08:27:08;;;;;;;14.05;12.70;;;;;;;19.09;76.04;101400.16;3606684;39;20121;-67
2023/05/07 08:29:34;;;;;;;14.32;11.65;;;;;;;19.19;75.19;101404.69;3604824;39;20067;-68
2023/05/07 08:31:59;;;;;;;13.65;11.93;;;;;;;19.23;74.08;101394.38;3607648;39;20098;-68
2023/05/07 08:34:25;;;;;;;13.90;12.20;;;;;;;19.37;73.78;101398.56;3610983;39;20081;-68
2023/05/07 08:36:51;;;;;;;13.68;11.07;;;;;;;19.46;74.03;101408.66;3611030;39;20047;-69
2023/05/07 08:39:16;;;;;;;13.73;11.57;;;;;;;19.42;72.53;101397.16;3609580;39;20381;-68
2023/05/07 08:41:48;;;;;;;12.18;10.98;;;;;;;19.47;72.01;101411.25;3606591;39;21292;-68
2023/05/07 08:44:17;;;;;;;11.73;10.73;;;;;;;19.51;72.94;101411.84;3609723;39;20086;-68
2023/05/07 08:46:47;;;;;;;11.90;10.70;;;;;;;19.52;72.82;101407.25;3608546;39;20123;-67
2023/05/07 08:49:15;;;;;;;12.93;11.77;;;;;;;19.58;72.90;101415.72;3611541;39;20047;-68
2023/05/07 08:51:42;;;;;;;13.30;11.93;;;;;;;19.61;71.84;101412.72;3611535;39;20112;-67
2023/05/07 08:54:10;;;;;;;14.13;12.65;;;;;;;19.60;72.71;101413.72;3600733;39;20055;-67
2023/05/07 08:56:35;;;;;;;14.43;12.93;;;;;;;19.63;72.03;101413.47;3600438;39;20280;-67
2023/05/07 08:59:01;;;;;;;12.75;11.55;;;;;;;19.66;71.00;101421.41;3604536;39;20066;-67
2023/05/07 09:01:27;;;;;;;14.57;12.93;;;;;;;19.65;72.95;101421.53;3607992;39;20070;-67
2023/05/07 09:03:53;;;;;;;16.20;12.60;;;;;;;19.74;72.18;101428.00;3608344;39;20059;-68
2023/05/07 09:06:19;;;;;;;15.88;12.88;;;;;;;19.82;73.47;101420.88;3609666;39;20055;-67
2023/05/07 09:08:53;;;;;;;15.18;13.77;;;;;;;19.82;71.69;101425.44;3607793;39;20301;-67
2023/05/07 09:11:24;;;;;;;14.35;12.85;;;;;;;19.81;70.39;101434.63;3608765;39;20047;-67
2023/05/07 09:13:55;;;;;;;13.98;12.63;;;;;;;19.73;70.49;101423.53;3607240;39;20063;-67
2023/05/07 09:16:23;;;;;;;13.52;12.15;;;;;;;19.73;71.44;101427.16;3594759;39;20047;-67
2023/05/07 09:18:53;;;;;;;14.75;12.88;;;;;;;19.70;69.66;101422.84;3606060;39;20082;-67
2023/05/07 09:21:22;;;;;;;14.73;13.43;;;;;;;19.64;70.42;101428.84;3608335;39;20147;-67
2023/05/07 09:23:51;;;;;;;14.70;13.30;;;;;;;19.67;70.62;101428.56;3606280;39;20382;-67
2023/05/07 09:26:17;;;;;;;13.95;12.45;;;;;;;19.77;70.11;101427.72;3604413;39;20061;-67
2023/05/07 09:28:44;;;;;;;13.43;12.10;;;;;;;19.84;69.74;101424.28;3607016;39;20106;-67
2023/05/07 09:31:11;;;;;;;14.75;13.35;;;;;;;19.75;70.20;101397.84;3604885;39;20350;-67
2023/05/07 09:33:38;;;;;;;14.73;13.25;;;;;;;19.69;70.10;101377.47;3610065;39;20057;-67
2023/05/07 09:36:05;;;;;;;13.88;12.48;;;;;;;;;;3607072;39;20087;-67
2023/05/07 09:38:37;;;;;;;16.05;13.85;;;;;;;19.93;69.74;101423.44;3611100;39;20055;-67
2023/05/07 09:41:13;;;;;;;14.65;13.25;;;;;;;19.99;69.23;101419.31;3608499;39;20055;-67
2023/05/07 09:43:40;;;;;;;15.52;13.93;;;;;;;19.79;71.29;101373.88;3609389;39;20050;-66
2023/05/07 09:46:14;;;;;;;14.90;13.50;;;;;;;20.23;69.21;101424.34;3608505;39;20051;-67
2023/05/07 09:48:43;;;;;;;14.43;13.02;;;;;;;20.31;69.13;101427.22;3609001;39;20050;-66
2023/05/07 09:51:28;;;;;;;14.02;12.70;;;;;;;20.32;68.08;101423.47;3606460;39;20123;-66
2023/05/07 09:53:56;;;;;;;15.65;13.95;;;;;;;20.35;70.02;101427.78;3607985;39;20061;-66
2023/05/07 09:56:24;;;;;;;13.88;12.38;;;;;;;20.49;69.37;101435.56;3607961;39;20054;-66
2023/05/07 09:58:53;;;;;;;21.10;18.40;;;;;;;20.50;68.05;101418.16;3605324;39;20053;-66
2023/05/07 10:01:22;;;;;;;13.48;12.13;;;;;;;20.59;66.88;101430.13;3594856;39;20048;-67
2023/05/07 10:03:51;;;;;;;12.70;11.40;;;;;;;20.36;66.47;101386.69;3609317;39;20427;-67
2023/05/07 10:06:17;;;;;;;14.05;12.52;;;;;;;20.67;67.78;101432.13;3610698;39;20073;-67
2023/05/07 10:08:44;;;;;;;13.95;12.45;;;;;;;20.77;67.85;101432.97;3609586;39;20074;-67
2023/05/07 10:11:10;;;;;;;13.75;12.35;;;;;;;20.83;67.31;101435.09;3602170;39;20385;-67
2023/05/07 10:13:37;;;;;;;13.85;12.45;;;;;;;20.92;66.00;101441.56;3609188;39;20127;-67
2023/05/07 10:16:05;;;;;;;14.13;12.80;;;;;;;20.90;67.04;101436.28;3610387;39;20047;-67
2023/05/07 10:18:32;;;;;;;12.38;11.18;;;;;;;21.05;66.10;101434.75;3607775;39;20062;-67
2023/05/07 10:21:15;;;;;;;13.10;10.95;;;;;;;21.19;65.15;101433.44;3608223;39;20094;-67
2023/05/07 10:23:57;;;;;;;12.23;10.82;;;;;;;21.51;65.60;101433.06;3609894;39;20086;-67
2023/05/07 10:26:27;;;;;;;12.23;10.93;;;;;;;21.73;64.72;101436.41;3609210;39;20087;-67
2023/05/07 10:29:11;;;;;;;12.95;11.63;;;;;;;22.06;64.97;101437.63;3604431;39;20055;-67
2023/05/07 10:31:57;;;;;;;13.00;11.73;;;;;;;22.33;62.75;101428.53;3606174;39;20061;-67
2023/05/07 10:34:37;;;;;;;12.40;11.20;;;;;;;22.51;61.81;101427.63;3607902;39;20067;-67
2023/05/07 10:37:04;;;;;;;11.07;9.98;;;;;;;22.29;60.75;101393.38;3606887;39;20457;-67
2023/05/07 10:39:31;;;;;;;11.65;10.50;;;;;;;22.51;60.45;101417.53;3610529;39;20119;-68
2023/05/07 10:42:08;;;;;;;11.82;10.63;;;;;;;22.63;60.83;101423.63;3605377;39;20074;-68
2023/05/07 10:44:33;;;;;;;11.73;10.52;;;;;;;22.60;59.75;101410.25;3609989;39;20408;-68
2023/05/07 10:47:15;;;;;;;11.27;10.07;;;;;;;22.74;61.90;101431.63;3606150;39;20106;-68
2023/05/07 10:49:46;;;;;;;11.73;10.52;;;;;;;22.82;60.31;101426.19;3605977;39;20063;-68
2023/05/07 10:52:15;;;;;;;10.40;9.38;;;;;;;22.84;60.00;101432.38;3607468;39;20063;-68
2023/05/07 10:54:46;;;;;;;10.70;9.60;;;;;;;22.84;60.06;101432.38;3608013;39;20050;-68
2023/05/07 10:57:36;;;;;;;11.10;10.00;;;;;;;22.80;59.62;101425.47;3608908;39;20058;-68
2023/05/07 11:00:25;;;;;;;11.27;10.27;;;;;;;22.90;59.10;101437.22;3611945;39;20066;-68
2023/05/07 11:03:02;;;;;;;11.27;10.10;;;;;;;22.88;58.98;101432.91;3607524;39;20047;-68
2023/05/07 11:05:33;;;;;;;11.40;10.20;;;;;;;22.88;59.97;101435.66;3607540;39;20035;-68
2023/05/07 11:08:02;;;;;;;9.40;8.50;;;;;;;23.02;57.85;101439.72;3607425;39;20047;-68
2023/05/07 11:10:55;;;;;;;9.18;7.88;;;;;;;23.05;57.26;101433.91;3610673;39;20051;-68
2023/05/07 11:13:49;;;;;;;8.00;7.30;;;;;;;22.84;56.16;101401.34;3609654;39;20058;-68